sensor_id;sensor_type;location;lat;lon;timestamp;pressure;altitude;pressure_sealevel;temperature;humidity
58991;BME280;44781;53.444;14.476;2023-02-22T00:01:29;101643.30;;;1.96;73.35
58991;BME280;44781;53.444;14.476;2023-02-22T00:04:13;101645.95;;;1.94;73.40
58991;BME280;44781;53.444;14.476;2023-02-22T00:06:44;101651.99;;;1.96;73.50
58991;BME280;44781;53.444;14.476;2023-02-22T00:09:15;101656.66;;;1.98;73.45
58991;BME280;44781;53.444;14.476;2023-02-22T00:11:47;101658.90;;;2.00;73.71
58991;BME280;44781;53.444;14.476;2023-02-22T00:14:24;101656.44;;;2.01;73.86
58991;BME280;44781;53.444;14.476;2023-02-22T00:16:53;101653.84;;;2.00;73.88
58991;BME280;44781;53.444;14.476;2023-02-22T00:19:25;101655.80;;;1.99;74.10
58991;BME280;44781;53.444;14.476;2023-02-22T00:21:53;101649.20;;;1.90;74.34
58991;BME280;44781;53.444;14.476;2023-02-22T00:24:21;101661.57;;;1.96;74.63
58991;BME280;44781;53.444;14.476;2023-02-22T00:26:53;101661.55;;;1.98;74.90
58991;BME280;44781;53.444;14.476;2023-02-22T00:29:24;101659.86;;;2.02;75.21
58991;BME280;44781;53.444;14.476;2023-02-22T00:31:52;101656.64;;;2.06;75.40
58991;BME280;44781;53.444;14.476;2023-02-22T00:34:19;101658.38;;;2.12;75.49
58991;BME280;44781;53.444;14.476;2023-02-22T00:36:49;101662.61;;;2.17;75.68
58991;BME280;44781;53.444;14.476;2023-02-22T00:39:16;101661.30;;;2.21;75.85
58991;BME280;44781;53.444;14.476;2023-02-22T00:41:46;101658.61;;;2.24;75.99
58991;BME280;44781;53.444;14.476;2023-02-22T00:44:14;101656.80;;;2.26;76.19
58991;BME280;44781;53.444;14.476;2023-02-22T00:46:51;101659.29;;;2.31;76.30
58991;BME280;44781;53.444;14.476;2023-02-22T00:49:36;101661.08;;;2.36;76.24
58991;BME280;44781;53.444;14.476;2023-02-22T00:52:11;101656.39;;;2.41;76.32
58991;BME280;44781;53.444;14.476;2023-02-22T00:54:43;101654.16;;;2.46;76.35
58991;BME280;44781;53.444;14.476;2023-02-22T00:57:13;101654.63;;;2.48;76.39
58991;BME280;44781;53.444;14.476;2023-02-22T00:59:42;101652.50;;;2.49;76.50
58991;BME280;44781;53.444;14.476;2023-02-22T01:02:12;101655.08;;;2.51;76.72
58991;BME280;44781;53.444;14.476;2023-02-22T01:04:40;101658.52;;;2.52;76.73
58991;BME280;44781;53.444;14.476;2023-02-22T01:07:08;101657.92;;;2.54;76.74
58991;BME280;44781;53.444;14.476;2023-02-22T01:09:39;101653.98;;;2.59;76.76
58991;BME280;44781;53.444;14.476;2023-02-22T01:12:12;101653.20;;;2.61;76.76
58991;BME280;44781;53.444;14.476;2023-02-22T01:14:50;101651.80;;;2.62;76.85
58991;BME280;44781;53.444;14.476;2023-02-22T01:17:18;101652.79;;;2.64;76.91
58991;BME280;44781;53.444;14.476;2023-02-22T01:19:58;101655.22;;;2.64;77.20
58991;BME280;44781;53.444;14.476;2023-02-22T01:22:27;101656.29;;;2.64;77.18
58991;BME280;44781;53.444;14.476;2023-02-22T01:24:55;101654.86;;;2.64;77.25
58991;BME280;44781;53.444;14.476;2023-02-22T01:27:28;101654.80;;;2.66;77.36
58991;BME280;44781;53.444;14.476;2023-02-22T01:30:00;101657.52;;;2.69;77.28
58991;BME280;44781;53.444;14.476;2023-02-22T01:32:27;101657.77;;;2.72;77.32
58991;BME280;44781;53.444;14.476;2023-02-22T01:34:56;101656.84;;;2.74;77.38
58991;BME280;44781;53.444;14.476;2023-02-22T01:37:26;101660.60;;;2.77;77.60
58991;BME280;44781;53.444;14.476;2023-02-22T01:40:32;101656.68;;;2.80;77.86
58991;BME280;44781;53.444;14.476;2023-02-22T01:43:05;101653.67;;;2.82;77.86
58991;BME280;44781;53.444;14.476;2023-02-22T01:46:20;101649.38;;;2.79;77.80
58991;BME280;44781;53.444;14.476;2023-02-22T01:48:57;101650.92;;;2.80;77.85
58991;BME280;44781;53.444;14.476;2023-02-22T01:51:33;101653.26;;;2.84;78.11
58991;BME280;44781;53.444;14.476;2023-02-22T01:54:16;101655.36;;;2.89;78.16
58991;BME280;44781;53.444;14.476;2023-02-22T01:56:52;101655.23;;;2.93;78.26
58991;BME280;44781;53.444;14.476;2023-02-22T01:59:21;101650.23;;;2.98;78.40
58991;BME280;44781;53.444;14.476;2023-02-22T02:01:49;101651.52;;;3.01;78.49
58991;BME280;44781;53.444;14.476;2023-02-22T02:04:22;101649.40;;;3.02;78.54
58991;BME280;44781;53.444;14.476;2023-02-22T02:06:57;101645.39;;;3.02;78.48
58991;BME280;44781;53.444;14.476;2023-02-22T02:09:36;101644.45;;;3.04;78.46
58991;BME280;44781;53.444;14.476;2023-02-22T02:12:07;101639.09;;;3.08;78.38
58991;BME280;44781;53.444;14.476;2023-02-22T02:14:35;101640.66;;;3.13;78.69
58991;BME280;44781;53.444;14.476;2023-02-22T02:17:09;101647.15;;;3.18;78.72
58991;BME280;44781;53.444;14.476;2023-02-22T02:22:57;101631.71;;;3.21;78.65
58991;BME280;44781;53.444;14.476;2023-02-22T02:30:44;101624.52;;;3.27;78.89
58991;BME280;44781;53.444;14.476;2023-02-22T02:38:38;101641.43;;;3.33;78.30
58991;BME280;44781;53.444;14.476;2023-02-22T02:41:26;101642.02;;;3.31;78.13
58991;BME280;44781;53.444;14.476;2023-02-22T02:49:07;101642.13;;;3.23;78.09
58991;BME280;44781;53.444;14.476;2023-02-22T02:51:51;101640.59;;;3.22;78.00
58991;BME280;44781;53.444;14.476;2023-02-22T02:54:22;101637.46;;;3.21;77.98
58991;BME280;44781;53.444;14.476;2023-02-22T02:56:52;101640.77;;;3.21;77.87
58991;BME280;44781;53.444;14.476;2023-02-22T02:59:28;101639.80;;;3.19;77.74
58991;BME280;44781;53.444;14.476;2023-02-22T03:13:40;101637.31;;;2.97;77.03
58991;BME280;44781;53.444;14.476;2023-02-22T03:22:36;101661.63;;;2.78;76.74
58991;BME280;44781;53.444;14.476;2023-02-22T03:25:19;101659.03;;;2.77;76.97
58991;BME280;44781;53.444;14.476;2023-02-22T03:27:52;101660.16;;;2.74;76.71
58991;BME280;44781;53.444;14.476;2023-02-22T03:30:33;101659.09;;;2.69;76.56
58991;BME280;44781;53.444;14.476;2023-02-22T03:33:06;101659.94;;;2.64;76.33
58991;BME280;44781;53.444;14.476;2023-02-22T03:35:54;101661.04;;;2.56;76.15
58991;BME280;44781;53.444;14.476;2023-02-22T03:38:25;101659.71;;;2.47;76.00
58991;BME280;44781;53.444;14.476;2023-02-22T03:40:58;101667.97;;;2.38;75.95
58991;BME280;44781;53.444;14.476;2023-02-22T03:43:39;101666.94;;;2.31;76.03
58991;BME280;44781;53.444;14.476;2023-02-22T03:46:12;101667.44;;;2.26;75.93
58991;BME280;44781;53.444;14.476;2023-02-22T03:49:01;101670.59;;;2.19;75.77
58991;BME280;44781;53.444;14.476;2023-02-22T03:51:33;101670.92;;;2.13;75.87
58991;BME280;44781;53.444;14.476;2023-02-22T03:54:02;101670.84;;;2.09;75.85
58991;BME280;44781;53.444;14.476;2023-02-22T03:56:52;101669.41;;;2.04;75.77
58991;BME280;44781;53.444;14.476;2023-02-22T03:59:23;101667.30;;;1.98;75.79
58991;BME280;44781;53.444;14.476;2023-02-22T04:01:53;101668.86;;;1.92;75.61
58991;BME280;44781;53.444;14.476;2023-02-22T04:04:21;101669.22;;;1.84;75.42
58991;BME280;44781;53.444;14.476;2023-02-22T04:06:51;101668.91;;;1.75;75.61
58991;BME280;44781;53.444;14.476;2023-02-22T04:09:18;101675.54;;;1.68;75.77
58991;BME280;44781;53.444;14.476;2023-02-22T04:11:46;101679.48;;;1.63;75.84
58991;BME280;44781;53.444;14.476;2023-02-22T04:14:13;101676.95;;;1.60;75.89
58991;BME280;44781;53.444;14.476;2023-02-22T04:16:40;101677.34;;;1.58;75.82
58991;BME280;44781;53.444;14.476;2023-02-22T04:19:17;101677.21;;;1.56;75.98
58991;BME280;44781;53.444;14.476;2023-02-22T04:21:45;101679.03;;;1.53;75.82
58991;BME280;44781;53.444;14.476;2023-02-22T04:24:19;101679.34;;;1.47;75.85
58991;BME280;44781;53.444;14.476;2023-02-22T04:26:46;101674.75;;;1.43;75.80
58991;BME280;44781;53.444;14.476;2023-02-22T04:29:14;101680.08;;;1.38;75.83
58991;BME280;44781;53.444;14.476;2023-02-22T04:31:44;101680.38;;;1.32;75.87
58991;BME280;44781;53.444;14.476;2023-02-22T04:34:12;101677.40;;;1.25;75.72
58991;BME280;44781;53.444;14.476;2023-02-22T04:36:41;101679.08;;;1.21;75.82
58991;BME280;44781;53.444;14.476;2023-02-22T04:39:11;101684.34;;;1.19;75.90
58991;BME280;44781;53.444;14.476;2023-02-22T04:41:38;101682.10;;;1.18;76.06
58991;BME280;44781;53.444;14.476;2023-02-22T04:44:08;101683.68;;;1.17;76.05
58991;BME280;44781;53.444;14.476;2023-02-22T04:46:35;101686.66;;;1.16;75.92
58991;BME280;44781;53.444;14.476;2023-02-22T04:49:03;101688.11;;;1.13;76.00
58991;BME280;44781;53.444;14.476;2023-02-22T04:51:33;101686.42;;;1.11;76.00
58991;BME280;44781;53.444;14.476;2023-02-22T04:54:05;101686.70;;;1.06;76.01
58991;BME280;44781;53.444;14.476;2023-02-22T04:56:34;101680.35;;;1.02;75.88
58991;BME280;44781;53.444;14.476;2023-02-22T04:59:01;101676.80;;;0.97;75.91
58991;BME280;44781;53.444;14.476;2023-02-22T05:01:33;101677.06;;;0.93;75.82
58991;BME280;44781;53.444;14.476;2023-02-22T05:04:05;101676.06;;;0.91;75.89
58991;BME280;44781;53.444;14.476;2023-02-22T05:06:32;101675.20;;;0.91;76.12
58991;BME280;44781;53.444;14.476;2023-02-22T05:09:00;101680.27;;;0.90;76.14
58991;BME280;44781;53.444;14.476;2023-02-22T05:11:28;101684.98;;;0.89;76.02
58991;BME280;44781;53.444;14.476;2023-02-22T05:13:56;101679.98;;;0.87;76.11
58991;BME280;44781;53.444;14.476;2023-02-22T05:16:23;101682.11;;;0.85;76.14
58991;BME280;44781;53.444;14.476;2023-02-22T05:18:52;101686.00;;;0.82;76.16
58991;BME280;44781;53.444;14.476;2023-02-22T05:21:19;101682.79;;;0.78;76.02
58991;BME280;44781;53.444;14.476;2023-02-22T05:23:47;101684.98;;;0.72;75.92
58991;BME280;44781;53.444;14.476;2023-02-22T05:26:14;101686.77;;;0.69;76.01
58991;BME280;44781;53.444;14.476;2023-02-22T05:28:42;101684.52;;;0.69;76.11
58991;BME280;44781;53.444;14.476;2023-02-22T05:31:09;101690.98;;;0.68;76.00
58991;BME280;44781;53.444;14.476;2023-02-22T05:33:36;101693.08;;;0.67;76.05
58991;BME280;44781;53.444;14.476;2023-02-22T05:36:06;101691.88;;;0.67;76.04
58991;BME280;44781;53.444;14.476;2023-02-22T05:38:35;101694.87;;;0.65;76.16
58991;BME280;44781;53.444;14.476;2023-02-22T05:41:11;101695.08;;;0.63;76.07
58991;BME280;44781;53.444;14.476;2023-02-22T05:43:40;101693.76;;;0.59;76.09
58991;BME280;44781;53.444;14.476;2023-02-22T05:46:08;101693.85;;;0.54;75.96
58991;BME280;44781;53.444;14.476;2023-02-22T05:48:35;101695.86;;;0.49;75.88
58991;BME280;44781;53.444;14.476;2023-02-22T05:51:03;101698.86;;;0.47;76.12
58991;BME280;44781;53.444;14.476;2023-02-22T05:53:31;101703.42;;;0.45;75.97
58991;BME280;44781;53.444;14.476;2023-02-22T05:55:58;101706.73;;;0.44;75.95
58991;BME280;44781;53.444;14.476;2023-02-22T05:58:25;101707.45;;;0.44;75.87
58991;BME280;44781;53.444;14.476;2023-02-22T06:00:55;101709.21;;;0.42;75.92
58991;BME280;44781;53.444;14.476;2023-02-22T06:03:22;101711.69;;;0.40;76.14
58991;BME280;44781;53.444;14.476;2023-02-22T06:05:50;101717.26;;;0.39;76.20
58991;BME280;44781;53.444;14.476;2023-02-22T06:08:17;101719.38;;;0.37;76.32
58991;BME280;44781;53.444;14.476;2023-02-22T06:10:45;101720.45;;;0.35;76.26
58991;BME280;44781;53.444;14.476;2023-02-22T06:13:12;101715.13;;;0.33;76.38
58991;BME280;44781;53.444;14.476;2023-02-22T06:15:39;101718.81;;;0.31;76.24
58991;BME280;44781;53.444;14.476;2023-02-22T06:18:07;101720.19;;;0.31;76.34
58991;BME280;44781;53.444;14.476;2023-02-22T06:20:34;101721.94;;;0.31;76.55
58991;BME280;44781;53.444;14.476;2023-02-22T06:23:01;101727.30;;;0.32;76.57
58991;BME280;44781;53.444;14.476;2023-02-22T06:25:29;101727.14;;;0.31;76.41
58991;BME280;44781;53.444;14.476;2023-02-22T06:28:00;101729.57;;;0.31;76.56
58991;BME280;44781;53.444;14.476;2023-02-22T06:30:27;101734.63;;;0.31;76.69
58991;BME280;44781;53.444;14.476;2023-02-22T06:32:55;101734.98;;;0.30;76.93
58991;BME280;44781;53.444;14.476;2023-02-22T06:35:23;101737.08;;;0.30;77.14
58991;BME280;44781;53.444;14.476;2023-02-22T06:37:51;101739.32;;;0.31;77.54
58991;BME280;44781;53.444;14.476;2023-02-22T06:40:18;101741.52;;;0.33;77.87
58991;BME280;44781;53.444;14.476;2023-02-22T06:42:47;101744.38;;;0.39;78.41
58991;BME280;44781;53.444;14.476;2023-02-22T06:45:16;101745.97;;;0.47;78.97
58991;BME280;44781;53.444;14.476;2023-02-22T06:47:44;101745.84;;;0.55;79.49
58991;BME280;44781;53.444;14.476;2023-02-22T06:52:48;101747.60;;;0.72;80.37
58991;BME280;44781;53.444;14.476;2023-02-22T06:55:34;101748.27;;;0.82;80.95
58991;BME280;44781;53.444;14.476;2023-02-22T06:58:03;101742.84;;;0.93;81.46
58991;BME280;44781;53.444;14.476;2023-02-22T07:00:31;101743.98;;;1.06;81.95
58991;BME280;44781;53.444;14.476;2023-02-22T07:02:59;101744.73;;;1.19;82.47
58991;BME280;44781;53.444;14.476;2023-02-22T07:05:27;101748.81;;;1.32;82.87
58991;BME280;44781;53.444;14.476;2023-02-22T07:08:00;101751.49;;;1.45;83.33
58991;BME280;44781;53.444;14.476;2023-02-22T07:10:30;101749.29;;;1.58;83.59
58991;BME280;44781;53.444;14.476;2023-02-22T07:12:58;101750.73;;;1.70;83.74
58991;BME280;44781;53.444;14.476;2023-02-22T07:15:27;101753.56;;;1.84;84.02
58991;BME280;44781;53.444;14.476;2023-02-22T07:17:58;101758.63;;;1.98;84.33
58991;BME280;44781;53.444;14.476;2023-02-22T07:20:29;101763.52;;;2.11;84.53
58991;BME280;44781;53.444;14.476;2023-02-22T07:22:57;101763.23;;;2.24;84.76
58991;BME280;44781;53.444;14.476;2023-02-22T07:25:24;101763.97;;;2.35;84.80
58991;BME280;44781;53.444;14.476;2023-02-22T07:27:52;101762.30;;;2.45;84.94
58991;BME280;44781;53.444;14.476;2023-02-22T07:30:22;101762.06;;;2.55;84.96
58991;BME280;44781;53.444;14.476;2023-02-22T07:32:52;101767.36;;;2.65;85.05
58991;BME280;44781;53.444;14.476;2023-02-22T07:35:25;101769.88;;;2.76;85.17
58991;BME280;44781;53.444;14.476;2023-02-22T07:37:54;101766.91;;;2.82;85.28
58991;BME280;44781;53.444;14.476;2023-02-22T07:40:22;101776.47;;;2.96;85.45
58991;BME280;44781;53.444;14.476;2023-02-22T07:45:33;101780.70;;;3.14;85.65
58991;BME280;44781;53.444;14.476;2023-02-22T07:48:04;101783.17;;;3.25;85.59
58991;BME280;44781;53.444;14.476;2023-02-22T07:50:33;101780.26;;;3.34;85.60
58991;BME280;44781;53.444;14.476;2023-02-22T07:53:06;101780.01;;;3.43;85.59
58991;BME280;44781;53.444;14.476;2023-02-22T07:55:33;101778.53;;;3.52;85.70
58991;BME280;44781;53.444;14.476;2023-02-22T07:58:03;101778.01;;;3.57;85.49
58991;BME280;44781;53.444;14.476;2023-02-22T08:00:34;101779.08;;;3.62;85.46
58991;BME280;44781;53.444;14.476;2023-02-22T08:03:05;101779.92;;;3.69;85.31
58991;BME280;44781;53.444;14.476;2023-02-22T08:05:36;101781.70;;;3.74;85.19
58991;BME280;44781;53.444;14.476;2023-02-22T08:08:04;101786.76;;;3.80;85.21
58991;BME280;44781;53.444;14.476;2023-02-22T08:10:32;101784.98;;;3.86;85.16
58991;BME280;44781;53.444;14.476;2023-02-22T08:13:02;101782.50;;;3.92;85.10
58991;BME280;44781;53.444;14.476;2023-02-22T08:15:35;101781.11;;;3.98;85.03
58991;BME280;44781;53.444;14.476;2023-02-22T08:18:05;101782.72;;;4.02;84.95
58991;BME280;44781;53.444;14.476;2023-02-22T08:20:36;101779.14;;;4.05;84.84
58991;BME280;44781;53.444;14.476;2023-02-22T08:23:05;101781.33;;;4.13;84.86
58991;BME280;44781;53.444;14.476;2023-02-22T08:25:51;101784.42;;;4.19;84.75
58991;BME280;44781;53.444;14.476;2023-02-22T08:28:21;101788.56;;;4.27;84.65
58991;BME280;44781;53.444;14.476;2023-02-22T08:30:49;101782.74;;;4.33;84.63
58991;BME280;44781;53.444;14.476;2023-02-22T08:33:19;101778.87;;;4.39;84.36
58991;BME280;44781;53.444;14.476;2023-02-22T08:35:48;101777.48;;;4.44;84.19
58991;BME280;44781;53.444;14.476;2023-02-22T08:38:29;101782.48;;;4.47;84.02
58991;BME280;44781;53.444;14.476;2023-02-22T08:40:57;101782.73;;;4.49;83.92
58991;BME280;44781;53.444;14.476;2023-02-22T08:43:25;101782.07;;;4.53;83.77
58991;BME280;44781;53.444;14.476;2023-02-22T08:45:52;101781.25;;;4.57;83.62
58991;BME280;44781;53.444;14.476;2023-02-22T08:48:19;101786.11;;;4.63;83.67
58991;BME280;44781;53.444;14.476;2023-02-22T08:50:49;101787.32;;;4.68;83.56
58991;BME280;44781;53.444;14.476;2023-02-22T08:53:17;101787.00;;;4.73;83.36
58991;BME280;44781;53.444;14.476;2023-02-22T08:55:47;101789.32;;;4.76;83.28
58991;BME280;44781;53.444;14.476;2023-02-22T08:58:19;101792.00;;;4.80;83.20
58991;BME280;44781;53.444;14.476;2023-02-22T09:00:46;101790.68;;;4.82;83.10
58991;BME280;44781;53.444;14.476;2023-02-22T09:03:14;101791.06;;;4.86;82.99
58991;BME280;44781;53.444;14.476;2023-02-22T09:05:42;101793.52;;;4.91;82.93
58991;BME280;44781;53.444;14.476;2023-02-22T09:08:10;101792.10;;;4.97;82.86
58991;BME280;44781;53.444;14.476;2023-02-22T09:10:37;101788.04;;;5.02;82.73
58991;BME280;44781;53.444;14.476;2023-02-22T09:13:06;101792.38;;;5.09;82.68
58991;BME280;44781;53.444;14.476;2023-02-22T09:15:34;101791.30;;;5.14;82.61
58991;BME280;44781;53.444;14.476;2023-02-22T09:18:04;101792.57;;;5.18;82.47
58991;BME280;44781;53.444;14.476;2023-02-22T09:20:35;101790.95;;;5.19;82.26
58991;BME280;44781;53.444;14.476;2023-02-22T09:23:04;101790.88;;;5.21;82.21
58991;BME280;44781;53.444;14.476;2023-02-22T09:25:32;101789.00;;;5.24;82.21
58991;BME280;44781;53.444;14.476;2023-02-22T09:28:00;101787.04;;;5.29;82.25
58991;BME280;44781;53.444;14.476;2023-02-22T09:30:33;101784.48;;;5.37;82.22
58991;BME280;44781;53.444;14.476;2023-02-22T09:33:03;101784.02;;;5.45;82.18
58991;BME280;44781;53.444;14.476;2023-02-22T09:35:31;101784.23;;;5.53;82.15
58991;BME280;44781;53.444;14.476;2023-02-22T09:38:03;101783.20;;;5.61;82.15
58991;BME280;44781;53.444;14.476;2023-02-22T09:40:34;101780.77;;;5.65;81.97
58991;BME280;44781;53.444;14.476;2023-02-22T09:43:29;101780.30;;;5.72;81.84
58991;BME280;44781;53.444;14.476;2023-02-22T09:51:37;101787.41;;;5.92;81.31
58991;BME280;44781;53.444;14.476;2023-02-22T09:54:13;101793.06;;;6.01;81.29
58991;BME280;44781;53.444;14.476;2023-02-22T09:56:46;101791.15;;;6.09;81.16
58991;BME280;44781;53.444;14.476;2023-02-22T09:59:20;101792.23;;;6.17;81.02
58991;BME280;44781;53.444;14.476;2023-02-22T10:02:28;101790.90;;;6.24;80.89
58991;BME280;44781;53.444;14.476;2023-02-22T10:05:02;101788.84;;;6.27;80.55
58991;BME280;44781;53.444;14.476;2023-02-22T10:07:57;101785.52;;;6.31;80.35
58991;BME280;44781;53.444;14.476;2023-02-22T10:10:29;101785.80;;;6.33;80.10
58991;BME280;44781;53.444;14.476;2023-02-22T10:13:37;101787.94;;;6.36;79.95
58991;BME280;44781;53.444;14.476;2023-02-22T10:24:53;101780.44;;;6.68;79.23
58991;BME280;44781;53.444;14.476;2023-02-22T10:27:33;101783.61;;;6.76;78.92
58991;BME280;44781;53.444;14.476;2023-02-22T10:33:16;101781.02;;;6.82;78.10
58991;BME280;44781;53.444;14.476;2023-02-22T10:35:45;101781.77;;;6.86;77.88
58991;BME280;44781;53.444;14.476;2023-02-22T10:38:21;101781.50;;;6.88;77.62
58991;BME280;44781;53.444;14.476;2023-02-22T10:43:40;101773.10;;;6.99;77.46
58991;BME280;44781;53.444;14.476;2023-02-22T10:46:15;101769.01;;;7.04;77.18
58991;BME280;44781;53.444;14.476;2023-02-22T10:48:46;101772.63;;;7.09;77.04
58991;BME280;44781;53.444;14.476;2023-02-22T10:51:14;101769.39;;;7.19;77.10
58991;BME280;44781;53.444;14.476;2023-02-22T10:53:44;101760.45;;;7.30;77.12
58991;BME280;44781;53.444;14.476;2023-02-22T10:56:23;101760.60;;;7.42;77.01
58991;BME280;44781;53.444;14.476;2023-02-22T10:58:58;101757.65;;;7.52;76.67
58991;BME280;44781;53.444;14.476;2023-02-22T11:01:35;101759.05;;;7.60;76.27
58991;BME280;44781;53.444;14.476;2023-02-22T11:04:14;101757.47;;;7.67;75.96
58991;BME280;44781;53.444;14.476;2023-02-22T11:07:29;101753.80;;;7.70;75.24
58991;BME280;44781;53.444;14.476;2023-02-22T11:09:55;101754.06;;;7.72;74.78
58991;BME280;44781;53.444;14.476;2023-02-22T11:12:44;101751.00;;;7.74;74.51
58991;BME280;44781;53.444;14.476;2023-02-22T11:15:27;101748.27;;;7.75;74.41
58991;BME280;44781;53.444;14.476;2023-02-22T11:17:57;101746.83;;;7.80;74.41
58991;BME280;44781;53.444;14.476;2023-02-22T11:20:39;101746.27;;;7.84;74.22
58991;BME280;44781;53.444;14.476;2023-02-22T11:23:10;101743.78;;;7.88;74.07
58991;BME280;44781;53.444;14.476;2023-02-22T11:26:06;101743.88;;;7.93;74.07
58991;BME280;44781;53.444;14.476;2023-02-22T11:28:46;101740.02;;;8.01;73.95
58991;BME280;44781;53.444;14.476;2023-02-22T11:31:22;101740.83;;;8.09;73.50
58991;BME280;44781;53.444;14.476;2023-02-22T11:33:59;101738.67;;;8.17;73.38
58991;BME280;44781;53.444;14.476;2023-02-22T11:39:27;101737.31;;;8.29;72.52
58991;BME280;44781;53.444;14.476;2023-02-22T11:42:18;101735.02;;;8.33;71.99
58991;BME280;44781;53.444;14.476;2023-02-22T11:45:14;101730.03;;;8.38;71.97
58991;BME280;44781;53.444;14.476;2023-02-22T12:01:37;101711.57;;;8.65;71.03
58991;BME280;44781;53.444;14.476;2023-02-22T12:05:29;101695.04;;;8.65;71.20
58991;BME280;44781;53.444;14.476;2023-02-22T12:50:38;101672.96;;;10.80;65.07
58991;BME280;44781;53.444;14.476;2023-02-22T14:00:20;101660.86;;;11.40;59.58
58991;BME280;44781;53.444;14.476;2023-02-22T14:15:14;101653.95;;;11.37;59.53
58991;BME280;44781;53.444;14.476;2023-02-22T14:31:20;101659.16;;;11.39;58.35
58991;BME280;44781;53.444;14.476;2023-02-22T15:28:10;101647.04;;;9.46;59.74
58991;BME280;44781;53.444;14.476;2023-02-22T15:31:32;101638.08;;;9.27;59.85
58991;BME280;44781;53.444;14.476;2023-02-22T15:46:17;101657.48;;;8.88;60.62
58991;BME280;44781;53.444;14.476;2023-02-22T15:49:24;101654.38;;;8.77;60.81
58991;BME280;44781;53.444;14.476;2023-02-22T15:53:23;101655.20;;;8.65;60.95
58991;BME280;44781;53.444;14.476;2023-02-22T15:56:50;101655.79;;;8.54;61.42
58991;BME280;44781;53.444;14.476;2023-02-22T16:00:03;101651.17;;;8.45;61.60
58991;BME280;44781;53.444;14.476;2023-02-22T16:51:26;101642.41;;;7.28;64.33
58991;BME280;44781;53.444;14.476;2023-02-22T17:16:27;101646.77;;;7.40;64.41
58991;BME280;44781;53.444;14.476;2023-02-22T17:18:54;101644.11;;;7.29;64.41
58991;BME280;44781;53.444;14.476;2023-02-22T17:22:03;101645.86;;;7.18;64.52
58991;BME280;44781;53.444;14.476;2023-02-22T17:29:03;101639.02;;;6.88;64.94
58991;BME280;44781;53.444;14.476;2023-02-22T18:49:43;101646.56;;;5.67;67.15
58991;BME280;44781;53.444;14.476;2023-02-22T20:57:25;101664.88;;;4.57;64.80
